createdAt,value
2023-05-21T00:01:25.260Z,3.23
2023-05-21T00:03:23.616Z,3.21
2023-05-21T00:05:26.189Z,3.21
2023-05-21T00:07:22.318Z,3.21
2023-05-21T00:09:22.576Z,3.15
2023-05-21T00:11:22.490Z,3.15
2023-05-21T00:13:22.413Z,3.15
2023-05-21T00:15:22.858Z,3.1
2023-05-21T00:17:22.804Z,3.1
2023-05-21T00:19:22.436Z,3.1
2023-05-21T00:21:22.741Z,3.03
2023-05-21T00:23:22.000Z,3.03
2023-05-21T00:25:22.784Z,3.03
2023-05-21T00:27:22.738Z,2.96
2023-05-21T00:29:21.982Z,2.96
2023-05-21T00:31:22.818Z,2.96
2023-05-21T00:33:23.204Z,2.92
2023-05-21T00:35:22.803Z,2.92
2023-05-21T00:37:22.340Z,2.92
2023-05-21T00:39:21.839Z,2.88
2023-05-21T00:41:22.640Z,2.88
2023-05-21T00:43:22.351Z,2.88
2023-05-21T00:45:22.017Z,2.88
2023-05-21T00:47:22.809Z,2.88
2023-05-21T00:49:22.318Z,2.88
2023-05-21T00:51:22.056Z,2.89
2023-05-21T00:53:22.478Z,2.89
2023-05-21T00:55:22.317Z,2.89
2023-05-21T00:57:22.446Z,2.89
2023-05-21T00:59:22.401Z,2.89
2023-05-21T01:01:24.047Z,2.89
2023-05-21T01:03:24.092Z,2.86
2023-05-21T01:05:22.260Z,2.86
2023-05-21T01:07:22.493Z,2.86
2023-05-21T01:09:22.154Z,2.81
2023-05-21T01:11:22.135Z,2.81
2023-05-21T01:13:22.415Z,2.81
2023-05-21T01:15:22.177Z,2.75
2023-05-21T01:17:23.086Z,2.75
2023-05-21T01:19:23.182Z,2.75
2023-05-21T01:21:22.591Z,2.73
2023-05-21T01:23:21.822Z,2.73
2023-05-21T01:25:22.502Z,2.73
2023-05-21T01:27:22.254Z,2.72
2023-05-21T01:29:22.431Z,2.72
2023-05-21T01:31:22.657Z,2.72
2023-05-21T01:33:22.816Z,2.73
2023-05-21T01:35:22.862Z,2.73
2023-05-21T01:37:22.005Z,2.73
2023-05-21T01:39:22.870Z,2.73
2023-05-21T01:41:22.390Z,2.73
2023-05-21T01:43:22.859Z,2.73
2023-05-21T01:45:22.265Z,2.73
2023-05-21T01:47:22.226Z,2.73
2023-05-21T01:49:22.684Z,2.73
2023-05-21T01:51:22.575Z,2.72
2023-05-21T01:53:22.076Z,2.72
2023-05-21T01:55:22.361Z,2.72
2023-05-21T01:57:22.110Z,2.71
2023-05-21T01:59:23.164Z,2.71
2023-05-21T02:01:29.559Z,2.71
2023-05-21T02:03:23.596Z,2.73
2023-05-21T02:05:22.331Z,2.73
2023-05-21T02:07:22.540Z,2.73
2023-05-21T02:09:22.181Z,2.77
2023-05-21T02:11:22.967Z,2.77
2023-05-21T02:13:25.013Z,2.77
2023-05-21T02:15:21.895Z,2.78
2023-05-21T02:17:22.946Z,2.78
2023-05-21T02:19:22.864Z,2.78
2023-05-21T02:21:23.032Z,2.77
2023-05-21T02:23:22.424Z,2.77
2023-05-21T02:25:21.861Z,2.77
2023-05-21T02:27:22.743Z,2.75
2023-05-21T02:29:22.302Z,2.75
2023-05-21T02:31:21.994Z,2.75
2023-05-21T02:33:22.775Z,2.73
2023-05-21T02:35:22.377Z,2.73
2023-05-21T02:37:22.801Z,2.73
2023-05-21T02:39:22.729Z,2.73
2023-05-21T02:41:22.194Z,2.73
2023-05-21T02:43:21.759Z,2.83
2023-05-21T02:45:22.695Z,2.83
2023-05-21T02:47:22.681Z,2.83
2023-05-21T02:49:23.056Z,2.86
2023-05-21T02:51:22.669Z,2.86
2023-05-21T02:53:22.556Z,2.86
2023-05-21T02:55:22.177Z,2.88
2023-05-21T02:57:22.801Z,2.88
2023-05-21T02:59:22.262Z,2.88
2023-05-21T03:01:24.203Z,2.89
2023-05-21T03:03:23.655Z,2.89
2023-05-21T03:05:21.995Z,2.89
2023-05-21T03:07:22.633Z,2.92
2023-05-21T03:09:22.165Z,2.92
2023-05-21T03:11:22.866Z,2.92
2023-05-21T03:13:22.552Z,2.96
2023-05-21T03:15:22.269Z,2.96
2023-05-21T03:17:22.971Z,2.96
2023-05-21T03:19:22.623Z,2.99
2023-05-21T03:21:22.913Z,2.99
2023-05-21T03:23:22.554Z,2.99
2023-05-21T03:25:22.306Z,2.98
2023-05-21T03:27:22.662Z,2.98
2023-05-21T03:29:22.264Z,2.98
2023-05-21T03:31:21.950Z,2.92
2023-05-21T03:33:23.313Z,2.92
2023-05-21T03:35:22.270Z,2.92
2023-05-21T03:37:21.953Z,2.91
2023-05-21T03:39:23.159Z,2.91
2023-05-21T03:41:22.724Z,2.91
2023-05-21T03:43:22.374Z,2.88
2023-05-21T03:45:22.765Z,2.88
2023-05-21T03:47:22.667Z,2.88
2023-05-21T03:49:22.207Z,2.88
2023-05-21T03:51:22.982Z,2.88
2023-05-21T03:53:22.626Z,2.88
2023-05-21T03:55:22.266Z,2.89
2023-05-21T03:57:23.003Z,2.89
2023-05-21T03:59:22.478Z,2.89
2023-05-21T04:01:25.236Z,2.94
2023-05-21T04:03:24.021Z,2.94
2023-05-21T04:05:22.783Z,2.94
2023-05-21T04:07:22.209Z,2.94
2023-05-21T04:09:22.720Z,2.94
2023-05-21T04:11:22.666Z,2.94
2023-05-21T04:13:22.289Z,2.92
2023-05-21T04:15:22.568Z,2.92
2023-05-21T04:17:22.721Z,2.92
2023-05-21T04:19:22.344Z,2.86
2023-05-21T04:21:22.624Z,2.86
2023-05-21T04:23:22.230Z,2.86
2023-05-21T04:25:21.749Z,2.81
2023-05-21T04:27:22.347Z,2.81
2023-05-21T04:29:22.339Z,2.81
2023-05-21T04:31:23.133Z,2.8
2023-05-21T04:33:22.760Z,2.8
2023-05-21T04:35:22.080Z,2.8
2023-05-21T04:37:22.786Z,2.77
2023-05-21T04:39:24.682Z,2.77
2023-05-21T04:41:22.857Z,2.77
2023-05-21T04:43:22.388Z,2.77
2023-05-21T04:45:22.246Z,2.77
2023-05-21T04:47:22.224Z,2.77
2023-05-21T04:49:22.622Z,2.77
2023-05-21T04:51:22.212Z,2.77
2023-05-21T04:53:22.000Z,2.77
2023-05-21T04:55:22.500Z,2.77
2023-05-21T04:57:22.272Z,2.77
2023-05-21T04:59:23.185Z,2.77
2023-05-21T05:01:29.019Z,2.8
2023-05-21T05:03:23.579Z,2.8
2023-05-21T05:05:22.476Z,2.8
2023-05-21T05:07:21.969Z,2.83
2023-05-21T05:09:25.272Z,2.83
2023-05-21T05:11:22.687Z,2.83
2023-05-21T05:13:22.033Z,2.89
2023-05-21T05:15:22.943Z,2.89
2023-05-21T05:17:23.257Z,2.89
2023-05-21T05:19:22.479Z,2.96
2023-05-21T05:21:22.832Z,2.96
2023-05-21T05:23:23.185Z,2.96
2023-05-21T05:25:23.220Z,2.98
2023-05-21T05:27:22.841Z,2.98
2023-05-21T05:29:22.018Z,2.98
2023-05-21T05:31:23.506Z,2.98
2023-05-21T05:33:22.661Z,2.98
2023-05-21T05:35:24.577Z,2.98
2023-05-21T05:37:22.813Z,2.96
2023-05-21T05:39:22.134Z,2.96
2023-05-21T05:41:21.987Z,2.96
2023-05-21T05:43:22.743Z,2.99
2023-05-21T05:45:22.055Z,2.99
2023-05-21T05:47:23.119Z,2.99
2023-05-21T05:49:22.558Z,2.99
2023-05-21T05:51:22.023Z,2.99
2023-05-21T05:53:22.816Z,2.99
2023-05-21T05:55:22.504Z,2.96
2023-05-21T05:57:22.732Z,2.96
2023-05-21T05:59:22.420Z,2.96
2023-05-21T06:01:26.518Z,2.88
2023-05-21T06:03:24.216Z,2.88
2023-05-21T06:05:22.581Z,2.88
2023-05-21T06:07:22.206Z,2.81
2023-05-21T06:09:24.263Z,2.81
2023-05-21T06:11:22.418Z,2.81
2023-05-21T06:13:24.052Z,3.05
2023-05-21T06:15:22.356Z,3.05
2023-05-21T06:17:23.128Z,3.05
2023-05-21T06:19:22.813Z,2.84
2023-05-21T06:21:22.127Z,2.84
2023-05-21T06:23:23.253Z,2.84
2023-05-21T06:25:21.994Z,2.89
2023-05-21T06:27:22.500Z,2.89
2023-05-21T06:29:21.991Z,2.89
2023-05-21T06:31:22.159Z,2.91
2023-05-21T06:33:23.536Z,2.91
2023-05-21T06:35:22.487Z,2.91
2023-05-21T06:37:23.803Z,3.05
2023-05-21T06:39:22.531Z,3.05
2023-05-21T06:41:22.406Z,3.05
2023-05-21T06:43:22.713Z,2.88
2023-05-21T06:45:22.238Z,2.88
2023-05-21T06:47:22.095Z,2.88
2023-05-21T06:49:22.778Z,2.8
2023-05-21T06:51:22.184Z,2.8
2023-05-21T06:53:22.682Z,2.8
2023-05-21T06:55:24.337Z,2.89
2023-05-21T06:57:22.665Z,2.89
2023-05-21T06:59:22.547Z,2.89
2023-05-21T07:01:26.374Z,2.94
2023-05-21T07:03:24.040Z,2.94
2023-05-21T07:05:22.496Z,2.94
2023-05-21T07:07:22.258Z,2.94
2023-05-21T07:09:22.621Z,2.94
2023-05-21T07:11:22.560Z,2.94
2023-05-21T07:13:21.954Z,2.92
2023-05-21T07:15:22.673Z,2.92
2023-05-21T07:17:22.466Z,2.92
2023-05-21T07:19:22.907Z,3.05
2023-05-21T07:21:22.358Z,3.05
2023-05-21T07:23:25.803Z,3.05
2023-05-21T07:25:22.168Z,3.1
2023-05-21T07:27:36.633Z,3.1
2023-05-21T07:29:24.379Z,3.1
2023-05-21T07:31:22.556Z,3.06
2023-05-21T07:33:22.374Z,3.06
2023-05-21T07:35:22.442Z,3.06
2023-05-21T07:37:22.391Z,2.94
2023-05-21T07:39:22.748Z,2.94
2023-05-21T07:41:22.440Z,2.94
2023-05-21T07:43:22.772Z,2.98
2023-05-21T07:45:22.239Z,2.98
2023-05-21T07:47:23.220Z,2.98
2023-05-21T07:49:22.343Z,2.99
2023-05-21T07:51:22.839Z,2.99
2023-05-21T07:53:22.553Z,2.99
2023-05-21T07:55:22.845Z,3.21
2023-05-21T07:57:22.306Z,3.21
2023-05-21T07:59:25.334Z,3.21
2023-05-21T08:01:26.028Z,3.23
2023-05-21T08:03:22.953Z,3.23
2023-05-21T08:05:27.629Z,3.23
2023-05-21T08:07:22.844Z,3.29
2023-05-21T08:09:22.139Z,3.29
2023-05-21T08:11:26.765Z,3.29
2023-05-21T08:13:22.209Z,3.21
2023-05-21T08:15:22.988Z,3.21
2023-05-21T08:17:23.099Z,3.21
2023-05-21T08:19:23.125Z,3.35
2023-05-21T08:21:22.527Z,3.35
2023-05-21T08:23:21.925Z,3.35
2023-05-21T08:25:22.480Z,11.29
2023-05-21T08:27:22.015Z,11.29
2023-05-21T08:29:22.507Z,11.29
2023-05-21T08:31:22.510Z,25.4
2023-05-21T08:33:23.679Z,25.4
2023-05-21T08:35:22.287Z,25.4
2023-05-21T08:37:21.997Z,33.87
2023-05-21T08:39:22.633Z,33.87
2023-05-21T08:41:22.365Z,33.87
2023-05-21T08:43:35.277Z,33.87
2023-05-21T08:45:22.369Z,33.87
2023-05-21T08:47:23.034Z,33.87
2023-05-21T08:49:22.354Z,38.64
2023-05-21T08:51:23.030Z,38.64
2023-05-21T08:53:38.567Z,38.64
2023-05-21T08:55:22.265Z,40.53
2023-05-21T08:57:22.523Z,40.53
2023-05-21T08:59:22.471Z,40.53
2023-05-21T09:01:26.854Z,42.62
2023-05-21T09:03:23.397Z,42.62
2023-05-21T09:05:41.189Z,42.62
2023-05-21T09:07:21.861Z,44.92
2023-05-21T09:09:22.184Z,44.92
2023-05-21T09:11:22.775Z,44.92
2023-05-21T09:13:22.242Z,42.62
2023-05-21T09:15:22.461Z,42.62
2023-05-21T09:17:22.790Z,42.62
2023-05-21T09:19:26.787Z,53.57
2023-05-21T09:21:22.548Z,53.57
2023-05-21T09:23:21.972Z,53.57
2023-05-21T09:25:22.666Z,66.23
2023-05-21T09:27:22.091Z,66.23
2023-05-21T09:29:22.776Z,66.23
2023-05-21T09:31:28.373Z,66.23
2023-05-21T09:33:23.207Z,66.23
2023-05-21T09:35:22.352Z,66.23
2023-05-21T09:37:38.364Z,61.4
2023-05-21T09:39:22.613Z,61.4
2023-05-21T09:41:22.652Z,61.4
2023-05-21T09:43:22.711Z,66.23
2023-05-21T09:45:22.173Z,66.23
2023-05-21T09:47:23.179Z,66.23
2023-05-21T09:49:22.686Z,71.86
2023-05-21T09:51:22.628Z,71.86
2023-05-21T09:53:22.656Z,71.86
2023-05-21T09:55:22.383Z,78.51
2023-05-21T09:57:22.437Z,78.51
2023-05-21T09:59:22.605Z,78.51
2023-05-21T10:01:26.257Z,86.51
2023-05-21T10:03:23.275Z,86.51
2023-05-21T10:05:22.537Z,86.51
2023-05-21T10:07:22.902Z,86.51
2023-05-21T10:09:22.687Z,86.51
2023-05-21T10:11:22.527Z,86.51
2023-05-21T10:13:21.949Z,86.51
2023-05-21T10:15:22.349Z,86.51
2023-05-21T10:17:22.971Z,86.51
2023-05-21T10:19:22.922Z,86.51
2023-05-21T10:21:22.521Z,86.51
2023-05-21T10:23:22.576Z,86.51
2023-05-21T10:25:22.124Z,71.86
2023-05-21T10:27:22.673Z,71.86
2023-05-21T10:29:22.437Z,71.86
2023-05-21T10:31:23.643Z,78.51
2023-05-21T10:33:23.076Z,78.51
2023-05-21T10:35:24.771Z,78.51
2023-05-21T10:37:22.691Z,71.86
2023-05-21T10:39:22.048Z,71.86
2023-05-21T10:41:23.332Z,71.86
2023-05-21T10:43:22.343Z,78.51
2023-05-21T10:45:21.962Z,78.51
2023-05-21T10:47:22.974Z,78.51
2023-05-21T10:49:22.393Z,71.86
2023-05-21T10:51:23.074Z,71.86
2023-05-21T10:53:22.514Z,71.86
2023-05-21T10:55:22.722Z,78.51
2023-05-21T10:57:22.435Z,78.51
2023-05-21T10:59:23.105Z,78.51
2023-05-21T11:01:25.687Z,78.51
2023-05-21T11:03:23.213Z,78.51
2023-05-21T11:05:21.915Z,78.51
2023-05-21T11:07:22.767Z,78.51
2023-05-21T11:09:22.271Z,78.51
2023-05-21T11:11:23.320Z,78.51
2023-05-21T11:13:22.326Z,78.51
2023-05-21T11:15:22.799Z,78.51
2023-05-21T11:17:22.551Z,78.51
2023-05-21T11:19:23.027Z,78.51
2023-05-21T11:21:22.481Z,78.51
2023-05-21T11:23:23.206Z,78.51
2023-05-21T11:25:25.712Z,71.86
2023-05-21T11:27:22.625Z,71.86
2023-05-21T11:29:22.301Z,71.86
2023-05-21T11:31:26.417Z,71.86
2023-05-21T11:33:22.877Z,71.86
2023-05-21T11:35:21.982Z,71.86
2023-05-21T11:37:22.375Z,71.86
2023-05-21T11:39:21.819Z,71.86
2023-05-21T11:41:23.147Z,71.86
2023-05-21T11:43:25.291Z,66.23
2023-05-21T11:45:21.932Z,66.23
2023-05-21T11:47:22.911Z,66.23
2023-05-21T11:49:25.426Z,61.4
2023-05-21T11:51:22.725Z,61.4
2023-05-21T11:53:22.407Z,61.4
2023-05-21T11:55:22.566Z,57.22
2023-05-21T11:57:22.316Z,57.22
2023-05-21T11:59:22.784Z,57.22
2023-05-21T12:01:28.950Z,57.22
2023-05-21T12:03:22.886Z,57.22
2023-05-21T12:05:24.865Z,57.22
2023-05-21T12:07:22.124Z,50.35
2023-05-21T12:09:22.685Z,50.35
2023-05-21T12:11:22.969Z,50.35
2023-05-21T12:13:40.395Z,53.57
2023-05-21T12:15:22.561Z,53.57
2023-05-21T12:17:22.298Z,53.57
2023-05-21T12:19:23.009Z,53.57
2023-05-21T12:21:24.174Z,53.57
2023-05-21T12:23:22.837Z,53.57
2023-05-21T12:25:22.396Z,57.22
2023-05-21T12:27:22.825Z,57.22
2023-05-21T12:29:22.486Z,57.22
2023-05-21T12:31:22.589Z,78.51
2023-05-21T12:33:25.039Z,78.51
2023-05-21T12:35:22.281Z,78.51
2023-05-21T12:37:22.069Z,78.51
2023-05-21T12:39:22.904Z,78.51
2023-05-21T12:41:22.324Z,78.51
2023-05-21T12:43:22.530Z,86.51
2023-05-21T12:45:22.942Z,86.51
2023-05-21T12:47:22.961Z,86.51
2023-05-21T12:49:22.568Z,86.51
2023-05-21T12:51:23.489Z,96.29
2023-05-21T12:53:22.619Z,96.29
2023-05-21T12:55:22.338Z,96.29
2023-05-21T12:57:22.574Z,96.29
2023-05-21T12:59:21.988Z,96.29
2023-05-21T13:01:28.631Z,96.29
2023-05-21T13:03:22.822Z,96.29
2023-05-21T13:05:23.265Z,96.29
2023-05-21T13:07:22.470Z,96.29
2023-05-21T13:09:21.819Z,96.29
2023-05-21T13:11:23.000Z,96.29
2023-05-21T13:13:22.653Z,96.29
2023-05-21T13:15:22.244Z,96.29
2023-05-21T13:17:23.147Z,96.29
2023-05-21T13:19:22.560Z,96.29
2023-05-21T13:21:22.470Z,96.29
2023-05-21T13:23:23.554Z,96.29
2023-05-21T13:25:22.100Z,96.29
2023-05-21T13:27:22.725Z,96.29
2023-05-21T13:29:22.207Z,96.29
2023-05-21T13:31:22.712Z,96.29
2023-05-21T13:33:24.397Z,96.29
2023-05-21T13:35:25.637Z,96.29
2023-05-21T13:37:22.104Z,96.29
2023-05-21T13:39:22.864Z,96.29
2023-05-21T13:41:25.085Z,96.29
2023-05-21T13:43:22.023Z,96.29
2023-05-21T13:45:22.478Z,108.52
2023-05-21T13:47:22.259Z,108.52
2023-05-21T13:49:22.535Z,96.29
2023-05-21T13:51:37.456Z,96.29
2023-05-21T13:53:22.467Z,96.29
2023-05-21T13:55:21.970Z,96.29
2023-05-21T13:57:22.725Z,96.29
2023-05-21T13:59:22.163Z,96.29
2023-05-21T14:01:27.172Z,96.29
2023-05-21T14:03:23.587Z,96.29
2023-05-21T14:05:25.563Z,96.29
2023-05-21T14:07:21.860Z,96.29
2023-05-21T14:09:22.212Z,96.29
2023-05-21T14:11:26.290Z,96.29
2023-05-21T14:13:38.768Z,108.52
2023-05-21T14:15:22.284Z,96.29
2023-05-21T14:17:23.293Z,96.29
2023-05-21T14:19:22.556Z,96.29
2023-05-21T14:21:22.895Z,96.29
2023-05-21T14:23:22.308Z,96.29
2023-05-21T14:25:22.730Z,96.29
2023-05-21T14:27:24.116Z,96.29
2023-05-21T14:29:21.942Z,96.29
2023-05-21T14:31:22.708Z,96.29
2023-05-21T14:33:22.498Z,96.29
2023-05-21T14:35:22.510Z,96.29
2023-05-21T14:37:22.149Z,96.29
2023-05-21T14:39:22.687Z,96.29
2023-05-21T14:41:22.654Z,96.29
2023-05-21T14:43:22.864Z,96.29
2023-05-21T14:45:41.679Z,96.29
2023-05-21T14:47:22.953Z,96.29
2023-05-21T14:49:22.779Z,96.29
2023-05-21T14:51:22.519Z,96.29
2023-05-21T14:53:22.005Z,96.29
2023-05-21T14:55:22.577Z,108.52
2023-05-21T14:57:22.205Z,108.52
2023-05-21T14:59:22.811Z,108.52
2023-05-21T15:01:25.553Z,108.52
2023-05-21T15:03:23.001Z,108.52
2023-05-21T15:05:23.383Z,108.52
2023-05-21T15:07:22.418Z,108.52
2023-05-21T15:09:22.818Z,108.52
2023-05-21T15:11:23.678Z,108.52
2023-05-21T15:13:22.110Z,96.29
2023-05-21T15:15:22.589Z,96.29
2023-05-21T15:17:22.956Z,96.29
2023-05-21T15:19:23.326Z,108.52
2023-05-21T15:21:22.628Z,108.52
2023-05-21T15:23:39.473Z,108.52
2023-05-21T15:25:22.595Z,108.52
2023-05-21T15:27:22.080Z,108.52
2023-05-21T15:29:22.491Z,108.52
2023-05-21T15:31:22.588Z,96.29
2023-05-21T15:33:22.696Z,108.52
2023-05-21T15:35:23.093Z,108.52
2023-05-21T15:37:22.171Z,108.52
2023-05-21T15:39:22.375Z,108.52
2023-05-21T15:41:24.849Z,108.52
2023-05-21T15:43:22.725Z,96.29
2023-05-21T15:45:22.381Z,96.29
2023-05-21T15:47:22.282Z,96.29
2023-05-21T15:49:22.498Z,96.29
2023-05-21T15:51:22.889Z,96.29
2023-05-21T15:53:23.415Z,96.29
2023-05-21T15:55:22.181Z,96.29
2023-05-21T15:57:22.524Z,96.29
2023-05-21T15:59:23.185Z,96.29
2023-05-21T16:01:26.108Z,108.52
2023-05-21T16:03:23.065Z,96.29
2023-05-21T16:05:22.372Z,96.29
2023-05-21T16:07:22.776Z,96.29
2023-05-21T16:09:22.624Z,108.52
2023-05-21T16:11:22.839Z,108.52
2023-05-21T16:13:22.194Z,96.29
2023-05-21T16:15:21.894Z,96.29
2023-05-21T16:17:22.698Z,96.29
2023-05-21T16:19:22.261Z,108.52
2023-05-21T16:21:22.599Z,108.52
2023-05-21T16:23:22.063Z,108.52
2023-05-21T16:25:22.417Z,96.29
2023-05-21T16:27:21.830Z,96.29
2023-05-21T16:29:25.396Z,96.29
2023-05-21T16:31:22.503Z,96.29
2023-05-21T16:33:23.804Z,96.29
2023-05-21T16:35:22.228Z,96.29
2023-05-21T16:37:21.988Z,96.29
2023-05-21T16:39:22.435Z,96.29
2023-05-21T16:41:22.192Z,96.29
2023-05-21T16:43:25.223Z,96.29
2023-05-21T16:45:22.032Z,96.29
2023-05-21T16:47:23.120Z,96.29
2023-05-21T16:49:24.176Z,96.29
2023-05-21T16:51:23.115Z,96.29
2023-05-21T16:53:22.632Z,96.29
2023-05-21T16:55:22.117Z,96.29
2023-05-21T16:57:22.592Z,96.29
2023-05-21T16:59:22.382Z,96.29
2023-05-21T17:01:26.396Z,96.29
2023-05-21T17:03:23.450Z,96.29
2023-05-21T17:05:22.999Z,96.29
2023-05-21T17:07:22.856Z,86.51
2023-05-21T17:09:22.162Z,86.51
2023-05-21T17:11:22.867Z,86.51
2023-05-21T17:13:34.872Z,96.29
2023-05-21T17:15:32.218Z,96.29
2023-05-21T17:17:23.363Z,96.29
2023-05-21T17:19:22.531Z,86.51
2023-05-21T17:21:22.853Z,86.51
2023-05-21T17:23:22.689Z,86.51
2023-05-21T17:25:22.672Z,86.51
2023-05-21T17:27:22.548Z,86.51
2023-05-21T17:29:22.194Z,86.51
2023-05-21T17:31:24.296Z,96.29
2023-05-21T17:33:22.331Z,96.29
2023-05-21T17:35:22.552Z,96.29
2023-05-21T17:37:22.579Z,108.52
2023-05-21T17:39:22.100Z,108.52
2023-05-21T17:41:22.877Z,108.52
2023-05-21T17:43:22.588Z,96.29
2023-05-21T17:45:22.211Z,96.29
2023-05-21T17:47:23.007Z,96.29
2023-05-21T17:49:22.306Z,96.29
2023-05-21T17:51:22.692Z,96.29
2023-05-21T17:53:22.206Z,96.29
2023-05-21T17:55:21.887Z,96.29
2023-05-21T17:57:22.443Z,86.51
2023-05-21T17:59:21.855Z,86.51
2023-05-21T18:01:26.300Z,96.29
2023-05-21T18:03:22.302Z,86.51
2023-05-21T18:05:23.045Z,86.51
2023-05-21T18:07:22.191Z,86.51
2023-05-21T18:09:22.533Z,86.51
2023-05-21T18:11:22.348Z,86.51
2023-05-21T18:13:22.549Z,108.52
2023-05-21T18:15:22.546Z,108.52
2023-05-21T18:17:23.164Z,108.52
2023-05-21T18:19:22.825Z,108.52
2023-05-21T18:21:22.583Z,108.52
2023-05-21T18:23:22.666Z,108.52
2023-05-21T18:25:22.328Z,108.52
2023-05-21T18:27:22.768Z,108.52
2023-05-21T18:29:22.193Z,108.52
2023-05-21T18:31:22.296Z,96.29
2023-05-21T18:33:23.252Z,96.29
2023-05-21T18:35:25.899Z,96.29
2023-05-21T18:37:22.666Z,108.52
2023-05-21T18:39:22.172Z,108.52
2023-05-21T18:41:22.432Z,108.52
2023-05-21T18:43:34.152Z,108.52
2023-05-21T18:45:22.153Z,108.52
2023-05-21T18:47:23.126Z,108.52
2023-05-21T18:49:22.401Z,108.52
2023-05-21T18:51:23.254Z,108.52
2023-05-21T18:53:22.524Z,108.52
2023-05-21T18:55:21.987Z,108.52
2023-05-21T18:57:22.284Z,108.52
2023-05-21T18:59:22.057Z,108.52
2023-05-21T19:01:28.234Z,108.52
2023-05-21T19:03:22.959Z,108.52
2023-05-21T19:05:22.407Z,108.52
2023-05-21T19:07:22.019Z,108.52
2023-05-21T19:09:22.268Z,108.52
2023-05-21T19:11:23.881Z,108.52
2023-05-21T19:13:21.846Z,108.52
2023-05-21T19:15:22.333Z,108.52
2023-05-21T19:17:23.496Z,108.52
2023-05-21T19:19:22.697Z,96.29
2023-05-21T19:21:23.388Z,108.52
2023-05-21T19:23:22.396Z,108.52
2023-05-21T19:25:25.768Z,108.52
2023-05-21T19:27:22.478Z,108.52
2023-05-21T19:29:22.513Z,108.52
2023-05-21T19:31:23.267Z,96.29
2023-05-21T19:33:22.967Z,96.29
2023-05-21T19:35:22.436Z,96.29
2023-05-21T19:37:39.053Z,96.29
2023-05-21T19:39:25.868Z,86.51
2023-05-21T19:41:22.287Z,86.51
2023-05-21T19:43:22.463Z,96.29
2023-05-21T19:45:22.127Z,96.29
2023-05-21T19:47:26.257Z,96.29
2023-05-21T19:49:22.366Z,96.29
2023-05-21T19:51:23.281Z,96.29
2023-05-21T19:53:22.206Z,96.29
2023-05-21T19:55:21.984Z,86.51
2023-05-21T19:57:24.296Z,86.51
2023-05-21T19:59:22.376Z,86.51
2023-05-21T20:01:26.180Z,86.51
2023-05-21T20:03:25.059Z,86.51
2023-05-21T20:05:22.742Z,86.51
2023-05-21T20:07:23.145Z,96.29
2023-05-21T20:09:22.363Z,96.29
2023-05-21T20:11:26.169Z,96.29
2023-05-21T20:13:22.161Z,96.29
2023-05-21T20:15:22.742Z,86.51
2023-05-21T20:17:23.407Z,86.51
2023-05-21T20:19:22.889Z,86.51
2023-05-21T20:21:23.131Z,86.51
2023-05-21T20:23:22.169Z,86.51
2023-05-21T20:25:22.847Z,86.51
2023-05-21T20:27:22.240Z,86.51
2023-05-21T20:29:22.862Z,86.51
2023-05-21T20:31:23.241Z,71.86
2023-05-21T20:33:22.553Z,71.86
2023-05-21T20:35:37.958Z,71.86
2023-05-21T20:37:22.166Z,61.4
2023-05-21T20:39:22.608Z,57.22
2023-05-21T20:41:24.282Z,57.22
2023-05-21T20:43:22.077Z,44.92
2023-05-21T20:45:22.748Z,44.92
2023-05-21T20:47:22.715Z,44.92
2023-05-21T20:49:21.969Z,35.33
2023-05-21T20:51:23.355Z,33.87
2023-05-21T20:53:22.406Z,33.87
2023-05-21T20:55:22.048Z,27.11
2023-05-21T20:57:39.161Z,26.23
2023-05-21T20:59:23.038Z,26.23
2023-05-21T21:01:28.286Z,20.78
2023-05-21T21:03:23.214Z,20.25
2023-05-21T21:05:22.359Z,20.25
2023-05-21T21:07:22.626Z,17.15
2023-05-21T21:09:22.034Z,16.78
2023-05-21T21:11:23.461Z,16.78
2023-05-21T21:13:41.922Z,13.29
2023-05-21T21:15:21.904Z,12.84
2023-05-21T21:17:23.007Z,12.84
2023-05-21T21:19:22.411Z,10.19
2023-05-21T21:21:22.757Z,10.05
2023-05-21T21:23:22.391Z,10.05
2023-05-21T21:25:22.030Z,8.5
2023-05-21T21:27:22.438Z,8.4
2023-05-21T21:29:22.037Z,8.4
2023-05-21T21:31:22.396Z,7.34
2023-05-21T21:33:23.168Z,7.34
2023-05-21T21:35:22.679Z,7.34
2023-05-21T21:37:23.015Z,6.5
2023-05-21T21:39:22.564Z,6.37
2023-05-21T21:41:22.825Z,6.37
2023-05-21T21:43:21.773Z,5.86
2023-05-21T21:45:22.465Z,6.02
2023-05-21T21:47:22.362Z,6.02
2023-05-21T21:49:22.716Z,5.71
2023-05-21T21:51:23.579Z,5.76
2023-05-21T21:53:22.111Z,5.76
2023-05-21T21:55:23.157Z,5.51
2023-05-21T21:57:22.202Z,5.51
2023-05-21T21:59:22.776Z,5.51
2023-05-21T22:01:35.618Z,5.61
2023-05-21T22:03:25.976Z,5.56
2023-05-21T22:05:22.081Z,5.56
2023-05-21T22:07:22.508Z,5.66
2023-05-21T22:09:22.432Z,5.56
2023-05-21T22:11:23.224Z,5.56
2023-05-21T22:13:22.442Z,5.56
2023-05-21T22:15:21.994Z,5.56
2023-05-21T22:17:23.303Z,5.56
2023-05-21T22:19:37.696Z,5.46
2023-05-21T22:21:23.142Z,5.46
2023-05-21T22:23:22.503Z,5.46
2023-05-21T22:25:39.622Z,5.51
2023-05-21T22:27:22.584Z,5.56
2023-05-21T22:29:22.468Z,5.56
2023-05-21T22:31:22.540Z,5.37
2023-05-21T22:33:22.532Z,5.37
2023-05-21T22:35:22.149Z,5.37
2023-05-21T22:37:22.661Z,5.15
2023-05-21T22:39:22.279Z,5.11
2023-05-21T22:41:23.489Z,5.11
2023-05-21T22:43:22.657Z,4.8
2023-05-21T22:45:22.167Z,4.72
2023-05-21T22:47:22.991Z,4.72
2023-05-21T22:49:22.645Z,4.32
2023-05-21T22:51:23.107Z,4.2
2023-05-21T22:53:22.576Z,4.2
2023-05-21T22:55:22.552Z,3.91
2023-05-21T22:57:22.745Z,3.89
2023-05-21T22:59:22.545Z,3.89
2023-05-21T23:01:26.240Z,3.64
2023-05-21T23:03:21.902Z,3.62
2023-05-21T23:05:40.898Z,3.62
2023-05-21T23:07:23.511Z,3.31
2023-05-21T23:09:22.955Z,3.29
2023-05-21T23:11:23.543Z,3.29
2023-05-21T23:13:22.528Z,3.17
2023-05-21T23:15:22.073Z,3.14
2023-05-21T23:17:23.125Z,3.14
2023-05-21T23:19:22.950Z,3.03
2023-05-21T23:21:23.727Z,3.03
2023-05-21T23:23:22.582Z,3.03
2023-05-21T23:25:21.896Z,2.99
2023-05-21T23:27:22.614Z,2.99
2023-05-21T23:29:22.087Z,2.99
2023-05-21T23:31:22.957Z,2.91
2023-05-21T23:33:22.419Z,2.89
2023-05-21T23:35:22.655Z,2.89
2023-05-21T23:37:23.722Z,2.86
2023-05-21T23:39:22.733Z,2.88
2023-05-21T23:41:22.600Z,2.88
2023-05-21T23:43:21.858Z,2.92
2023-05-21T23:45:22.869Z,2.92
2023-05-21T23:47:22.921Z,2.92
2023-05-21T23:49:22.344Z,2.98
2023-05-21T23:51:22.799Z,2.98
2023-05-21T23:53:22.409Z,2.98
2023-05-21T23:55:23.050Z,2.98
2023-05-21T23:57:22.419Z,2.96
2023-05-21T23:59:22.793Z,2.96
